Time;durP1;ratioP1;P1;durP2;ratioP2;P2;SDS_P1;SDS_P2;PMS_P1;PMS_P2;Temp;Humidity;BMP_temperature;BMP_pressure;BME280_temperature;BME280_humidity;BME280_pressure;Samples;Min_cycle;Max_cycle;Signal;HPM_P1;HPM_P2
2023/10/08 00:00:39;;;;;;;8.93;2.25;;;;;;;22.48;100.00;101779.00;4934202;29;20680;-40
2023/10/08 00:02:46;;;;;;;7.13;2.72;;;;;;;22.46;100.00;101782.31;4932685;29;20087;-40
2023/10/08 00:05:16;;;;;;;6.78;2.75;;;;;;;22.44;100.00;101796.16;4934308;29;20130;-38
2023/10/08 00:07:43;;;;;;;8.02;2.13;;;;;;;22.42;100.00;101787.34;4931857;29;20052;-39
2023/10/08 00:10:09;;;;;;;5.40;1.98;;;;;;;22.44;100.00;101784.03;4933381;29;20150;-42
2023/10/08 00:12:36;;;;;;;5.90;2.40;;;;;;;22.45;100.00;101796.94;4933168;29;20055;-40
2023/10/08 00:15:07;;;;;;;9.23;2.90;;;;;;;22.49;100.00;101814.56;4933065;29;20044;-38
2023/10/08 00:17:33;;;;;;;5.80;2.50;;;;;;;22.44;100.00;101810.31;4934403;29;20060;-39
2023/10/08 00:20:00;;;;;;;6.32;2.28;;;;;;;22.45;100.00;101813.94;4931374;29;20052;-40
2023/10/08 00:22:28;;;;;;;7.43;1.98;;;;;;;22.43;100.00;101816.44;4934087;29;20067;-39
2023/10/08 00:24:58;;;;;;;7.13;2.35;;;;;;;22.46;100.00;101824.00;4930728;29;20055;-41
2023/10/08 00:27:24;;;;;;;6.03;2.28;;;;;;;22.48;100.00;101827.16;4932452;29;20723;-38
2023/10/08 00:29:51;;;;;;;6.55;2.60;;;;;;;22.45;100.00;101825.28;4933914;29;20044;-39
2023/10/08 00:32:17;;;;;;;8.27;2.08;;;;;;;22.46;100.00;101832.50;4933355;29;20463;-39
2023/10/08 00:34:44;;;;;;;8.52;2.10;;;;;;;22.49;100.00;101845.72;4933984;29;20119;-39
2023/10/08 00:37:14;;;;;;;6.13;2.10;;;;;;;22.45;100.00;101825.28;4931151;29;20574;-38
2023/10/08 00:39:41;;;;;;;9.13;1.77;;;;;;;22.44;100.00;101818.81;4933229;29;20051;-39
2023/10/08 00:42:08;;;;;;;5.50;2.30;;;;;;;22.46;100.00;101833.31;4933432;29;20130;-39
2023/10/08 00:44:47;;;;;;;7.80;2.58;;;;;;;22.46;100.00;101832.50;4933871;29;20495;-42
2023/10/08 00:47:16;;;;;;;6.53;1.80;;;;;;;22.44;100.00;101832.97;4932232;29;20063;-41
2023/10/08 00:57:29;;;;;;;5.47;2.10;;;;;;;22.41;100.00;101839.59;4930607;29;20115;-51
2023/10/08 00:59:58;;;;;;;7.65;2.25;;;;;;;22.43;100.00;101827.78;4933125;29;20055;-50
2023/10/08 01:02:42;;;;;;;7.43;2.72;;;;;;;22.44;100.00;101835.03;4933680;29;20054;-47
2023/10/08 01:05:11;;;;;;;4.18;1.90;;;;;;;22.45;100.00;101836.59;4932075;29;20134;-50
2023/10/08 01:07:44;;;;;;;6.38;2.13;;;;;;;22.46;100.00;101841.00;4931786;29;20062;-48
2023/10/08 01:10:19;;;;;;;5.07;1.95;;;;;;;22.45;100.00;101847.94;4931353;29;20051;-47
2023/10/08 01:13:03;;;;;;;5.22;2.28;;;;;;;22.41;100.00;101848.09;4936545;29;20463;-47
2023/10/08 01:15:30;;;;;;;8.48;2.05;;;;;;;22.59;100.00;101852.97;4933420;29;20051;-47
2023/10/08 01:18:00;;;;;;;7.28;2.13;;;;;;;22.51;100.00;101854.56;4933205;29;20107;-47
2023/10/08 01:20:34;;;;;;;3.75;1.83;;;;;;;22.46;100.00;101866.50;4928736;29;20495;-47
2023/10/08 01:23:16;;;;;;;4.82;1.90;;;;;;;22.44;100.00;101866.97;4933379;29;20055;-47
2023/10/08 01:25:50;;;;;;;5.57;2.17;;;;;;;22.46;100.00;101867.31;4929401;29;20144;-47
2023/10/08 01:28:25;;;;;;;9.75;2.30;;;;;;;22.50;100.00;101861.47;4931128;29;20056;-49
2023/10/08 01:30:54;;;;;;;5.05;1.90;;;;;;;22.44;100.00;101857.72;4931655;29;20066;-48
2023/10/08 01:33:22;;;;;;;5.43;1.90;;;;;;;22.49;100.00;101865.56;4933005;29;20084;-48
2023/10/08 01:35:49;;;;;;;8.32;2.08;;;;;;;22.46;100.00;101855.19;4933205;29;20099;-45
2023/10/08 01:38:22;;;;;;;3.60;2.10;;;;;;;22.45;100.00;101856.44;4930919;29;20057;-48
2023/10/08 01:40:52;;;;;;;5.65;2.03;;;;;;;22.48;100.00;101858.34;4931420;29;20632;-48
2023/10/08 01:43:20;;;;;;;7.85;2.03;;;;;;;22.43;100.00;101854.09;4933080;29;20079;-49
2023/10/08 01:45:50;;;;;;;6.90;2.05;;;;;;;22.45;100.00;101845.91;4932563;29;20055;-50
2023/10/08 01:48:23;;;;;;;5.88;2.00;;;;;;;22.47;100.00;101849.03;4930087;29;20106;-47
2023/10/08 01:50:55;;;;;;;4.65;2.05;;;;;;;22.48;100.00;101849.84;4931469;29;20051;-48
2023/10/08 01:53:21;;;;;;;8.93;2.28;;;;;;;22.46;100.00;101858.00;4929312;29;20051;-48
2023/10/08 01:55:53;;;;;;;7.50;2.05;;;;;;;22.44;100.00;101852.03;4925976;29;20083;-43
2023/10/08 01:58:22;;;;;;;6.72;2.20;;;;;;;22.46;100.00;101849.50;4941587;29;20150;-42
2023/10/08 02:00:52;;;;;;;10.70;2.03;;;;;;;22.53;100.00;101855.66;4931196;29;20055;-40
2023/10/08 02:03:19;;;;;;;3.80;1.80;;;;;;;22.55;100.00;101861.66;4932606;29;20048;-40
2023/10/08 02:05:46;;;;;;;6.55;1.80;;;;;;;22.55;100.00;101863.69;4932343;29;20112;-39
2023/10/08 02:08:16;;;;;;;4.80;1.77;;;;;;;22.54;100.00;101859.28;4915335;29;20407;-38
2023/10/08 02:10:46;;;;;;;4.88;1.70;;;;;;;22.54;100.00;101854.38;4928526;29;20055;-38
2023/10/08 02:13:14;;;;;;;4.80;1.70;;;;;;;22.54;100.00;101864.97;4930555;29;20522;-40
2023/10/08 02:15:43;;;;;;;6.57;1.90;;;;;;;22.51;100.00;101855.31;4932322;29;20055;-40
2023/10/08 02:18:10;;;;;;;6.07;1.58;;;;;;;22.51;100.00;101817.72;4931762;29;20079;-40
2023/10/08 02:20:39;;;;;;;6.28;2.17;;;;;;;22.53;100.00;101812.34;4932448;29;20074;-40
2023/10/08 02:23:06;;;;;;;4.63;1.90;;;;;;;22.50;100.00;101822.59;4932325;29;20052;-41
2023/10/08 02:25:34;;;;;;;8.77;2.20;;;;;;;22.49;100.00;101817.41;4930837;29;20129;-40
2023/10/08 02:28:03;;;;;;;7.32;1.65;;;;;;;22.49;100.00;101787.03;4931656;29;20169;-41
2023/10/08 02:30:30;;;;;;;6.53;1.80;;;;;;;22.47;100.00;101746.25;4931279;29;20066;-40
2023/10/08 02:32:58;;;;;;;6.78;2.08;;;;;;;22.48;100.00;101804.50;4932500;29;20059;-40
2023/10/08 02:35:25;;;;;;;4.15;1.80;;;;;;;22.49;100.00;101825.91;4932109;29;20722;-39
2023/10/08 02:37:52;;;;;;;6.68;2.00;;;;;;;22.50;100.00;101807.63;4932046;29;20107;-40
2023/10/08 02:40:28;;;;;;;7.05;1.80;;;;;;;22.42;100.00;101810.03;4931886;29;20695;-41
2023/10/08 02:42:58;;;;;;;4.32;1.60;;;;;;;22.44;100.00;101815.97;4930601;29;20123;-40
2023/10/08 02:45:29;;;;;;;4.05;1.40;;;;;;;22.47;100.00;101871.72;4931849;29;20047;-40
2023/10/08 02:47:55;;;;;;;6.70;1.90;;;;;;;22.45;100.00;101839.44;4932347;29;20144;-40
2023/10/08 02:50:22;;;;;;;3.13;1.60;;;;;;;22.43;100.00;101824.94;4931734;29;20124;-41
2023/10/08 02:52:49;;;;;;;8.45;2.28;;;;;;;22.44;100.00;101835.81;4929524;29;20146;-42
2023/10/08 02:55:28;;;;;;;5.53;1.90;;;;;;;22.42;100.00;101854.56;4931996;29;20123;-39
2023/10/08 02:57:56;;;;;;;6.22;2.00;;;;;;;22.42;100.00;101866.69;4931292;29;20047;-40
2023/10/08 03:00:29;;;;;;;4.72;1.85;;;;;;;22.42;100.00;101877.22;4931097;29;20088;-39
2023/10/08 03:02:58;;;;;;;4.38;1.63;;;;;;;22.43;100.00;101878.78;4931934;29;20138;-40
2023/10/08 03:05:29;;;;;;;8.50;1.98;;;;;;;22.43;100.00;101901.47;4930673;29;20048;-43
2023/10/08 03:07:57;;;;;;;4.88;1.88;;;;;;;22.40;100.00;101910.91;4931422;29;20055;-40
2023/10/08 03:10:32;;;;;;;6.03;2.00;;;;;;;22.43;100.00;101895.78;4931558;29;20056;-42
2023/10/08 03:13:04;;;;;;;4.63;1.52;;;;;;;22.42;100.00;101902.72;4931392;29;20067;-39
2023/10/08 03:15:38;;;;;;;2.72;1.40;;;;;;;22.41;100.00;101901.16;4930784;29;20107;-39
2023/10/08 03:18:14;;;;;;;3.90;1.80;;;;;;;22.42;100.00;101908.38;4931569;29;20055;-39
2023/10/08 03:20:42;;;;;;;7.32;1.70;;;;;;;22.40;100.00;101885.41;4931262;29;20134;-39
2023/10/08 03:23:23;;;;;;;4.38;1.92;;;;;;;22.39;100.00;101872.50;4928316;29;20047;-39
2023/10/08 03:26:01;;;;;;;5.35;1.63;;;;;;;22.38;100.00;101871.72;4931412;29;20602;-40
2023/10/08 03:28:29;;;;;;;4.65;1.73;;;;;;;22.41;100.00;101881.31;4933624;29;20454;-38
2023/10/08 03:31:03;;;;;;;5.22;1.83;;;;;;;22.36;100.00;101854.41;4937752;29;20105;-40
2023/10/08 03:33:34;;;;;;;4.22;1.67;;;;;;;22.37;100.00;101838.19;4937703;29;20533;-40
2023/10/08 03:36:09;;;;;;;4.85;1.65;;;;;;;22.38;100.00;101876.59;4937502;29;20047;-40
2023/10/08 03:38:50;;;;;;;5.30;1.70;;;;;;;22.37;100.00;101875.81;4936198;29;20058;-40
2023/10/08 03:41:27;;;;;;;5.15;1.70;;;;;;;22.37;100.00;101875.03;4937563;29;20063;-40
2023/10/08 03:44:12;;;;;;;4.25;1.85;;;;;;;22.37;100.00;101872.97;4937450;29;20062;-39
2023/10/08 03:46:42;;;;;;;5.40;1.80;;;;;;;22.38;100.00;101887.94;4937837;29;20074;-38
2023/10/08 03:51:51;;;;;;;5.82;2.20;;;;;;;22.37;100.00;101838.19;4935943;29;20052;-38
2023/10/08 03:54:34;;;;;;;5.30;1.83;;;;;;;22.35;100.00;101838.66;4935140;29;20054;-38
2023/10/08 03:57:13;;;;;;;4.45;1.50;;;;;;;22.38;100.00;101863.22;4934422;29;20055;-40
2023/10/08 03:59:41;;;;;;;8.38;2.30;;;;;;;22.37;100.00;101864.47;4931510;29;20055;-40
2023/10/08 04:02:21;;;;;;;3.70;1.60;;;;;;;22.36;100.00;101884.78;4933007;29;20067;-39
2023/10/08 04:04:51;;;;;;;5.18;1.92;;;;;;;22.37;100.00;101884.28;4937624;29;20051;-40
2023/10/08 04:07:28;;;;;;;6.00;1.73;;;;;;;22.33;100.00;101883.66;4936666;29;20055;-40
2023/10/08 04:10:20;;;;;;;6.55;1.80;;;;;;;22.34;100.00;101890.91;4936448;29;20052;-39
2023/10/08 04:12:50;;;;;;;3.92;1.50;;;;;;;22.34;100.00;101896.56;4937696;29;20074;-39
2023/10/08 04:15:18;;;;;;;6.65;1.65;;;;;;;22.32;100.00;101884.94;4937391;29;20521;-38
2023/10/08 04:17:45;;;;;;;5.82;1.73;;;;;;;22.31;100.00;101888.25;4932982;29;20577;-42
2023/10/08 04:23:21;;;;;;;4.90;1.45;;;;;;;22.35;100.00;101905.88;4859503;29;20211;-40
2023/10/08 04:25:54;;;;;;;5.45;1.83;;;;;;;22.33;100.00;101908.38;4855460;29;20056;-42
2023/10/08 04:28:21;;;;;;;4.38;1.70;;;;;;;22.32;100.00;101906.81;4854176;29;20068;-38
2023/10/08 04:30:50;;;;;;;4.60;1.92;;;;;;;22.32;100.00;101904.78;4859251;29;20162;-40
2023/10/08 04:33:19;;;;;;;4.75;1.60;;;;;;;22.31;100.00;101902.41;4859522;29;20087;-40
2023/10/08 04:35:55;;;;;;;3.47;1.67;;;;;;;22.33;100.00;101914.84;4857361;29;20052;-39
2023/10/08 04:38:28;;;;;;;5.15;1.83;;;;;;;22.34;100.00;101912.81;4856571;29;20064;-40
2023/10/08 04:40:55;;;;;;;3.45;1.70;;;;;;;22.37;100.00;101903.38;4855012;29;20520;-42
2023/10/08 04:43:27;;;;;;;6.43;1.75;;;;;;;22.30;100.00;101898.78;4856381;29;20144;-39
2023/10/08 04:45:56;;;;;;;4.85;1.80;;;;;;;22.32;100.00;101896.28;4855727;29;20064;-40
2023/10/08 04:48:24;;;;;;;4.32;1.60;;;;;;;22.31;100.00;101879.75;4856158;29;20532;-39
2023/10/08 04:50:58;;;;;;;6.35;2.10;;;;;;;22.32;100.00;101881.31;4854289;29;20822;-39
2023/10/08 04:53:31;;;;;;;8.13;2.00;;;;;;;22.31;100.00;101893.91;4852383;29;20082;-43
2023/10/08 04:56:05;;;;;;;4.13;1.70;;;;;;;22.29;100.00;101911.34;4931118;29;20062;-39
2023/10/08 04:58:36;;;;;;;3.67;1.53;;;;;;;22.30;100.00;101932.78;4931843;29;20055;-38
2023/10/08 05:01:20;;;;;;;3.63;1.67;;;;;;;22.31;100.00;101948.50;4928694;29;20047;-40
2023/10/08 05:17:03;;;;;;;2.55;1.42;;;;;;;22.29;100.00;101948.19;4933559;29;20135;-38
2023/10/08 05:19:50;;;;;;;5.82;1.38;;;;;;;22.28;100.00;101945.81;4932052;29;20189;-39
2023/10/08 05:22:18;;;;;;;9.07;1.85;;;;;;;22.29;100.00;101939.66;4933473;29;20138;-38
2023/10/08 05:30:31;;;;;;;3.33;1.40;;;;;;;22.26;100.00;101949.09;4928519;29;20586;-40
2023/10/08 06:15:51;;;;;;;7.10;1.83;;;;;;;22.33;100.00;101982.03;4929980;29;20052;-39
2023/10/08 06:18:19;;;;;;;4.30;1.65;;;;;;;22.33;100.00;101982.03;4931826;29;20688;-40
2023/10/08 06:20:47;;;;;;;6.90;1.52;;;;;;;22.35;100.00;102003.00;4929259;29;20044;-38
2023/10/08 06:23:18;;;;;;;6.63;1.75;;;;;;;22.32;100.00;102009.59;4931584;29;20130;-40
2023/10/08 06:25:47;;;;;;;3.03;1.30;;;;;;;22.35;100.00;102025.66;4921069;29;20078;-38
2023/10/08 06:28:21;;;;;;;5.10;1.63;;;;;;;22.33;100.00;102033.84;4931136;29;20130;-39
2023/10/08 06:30:49;;;;;;;4.13;1.57;;;;;;;22.32;100.00;102026.59;4932290;29;20052;-40
2023/10/08 06:33:16;;;;;;;8.15;1.75;;;;;;;22.32;100.00;102003.94;4930979;29;20142;-38
2023/10/08 06:36:01;;;;;;;4.70;1.55;;;;;;;22.30;100.00;102014.94;4932114;29;20043;-40
2023/10/08 06:38:30;;;;;;;5.78;1.65;;;;;;;22.29;100.00;102016.16;4929765;29;20058;-39
2023/10/08 06:41:06;;;;;;;4.35;1.27;;;;;;;22.30;100.00;102037.59;4931323;29;20462;-39
2023/10/08 06:43:36;;;;;;;2.00;1.13;;;;;;;22.32;100.00;102042.78;4932212;29;20059;-38
2023/10/08 06:46:07;;;;;;;3.17;1.25;;;;;;;22.29;100.00;102033.16;4931857;29;20603;-38
2023/10/08 06:48:34;;;;;;;4.63;1.23;;;;;;;22.29;100.00;102044.50;4928664;29;20698;-40
2023/10/08 06:51:07;;;;;;;4.57;1.55;;;;;;;22.33;100.00;102047.19;4928156;29;20846;-41
2023/10/08 06:53:34;;;;;;;3.28;1.48;;;;;;;22.32;100.00;102065.47;4931626;29;20062;-39
2023/10/08 06:56:04;;;;;;;3.13;1.30;;;;;;;22.31;100.00;102072.38;4931520;29;20043;-39
2023/10/08 06:58:34;;;;;;;4.00;1.50;;;;;;;22.30;100.00;102071.59;4929468;29;20063;-40
2023/10/08 07:01:13;;;;;;;2.90;1.08;;;;;;;22.31;100.00;102069.56;4927279;29;20063;-38
2023/10/08 07:03:39;;;;;;;2.88;1.10;;;;;;;22.30;100.00;102060.25;4928654;29;20506;-39
2023/10/08 07:06:25;;;;;;;7.18;1.50;;;;;;;22.31;100.00;102063.88;4930210;29;20047;-39
2023/10/08 07:08:55;;;;;;;3.88;1.40;;;;;;;22.33;100.00;102086.88;4929999;29;20051;-39
2023/10/08 07:11:23;;;;;;;3.40;1.48;;;;;;;22.35;100.00;102112.69;4932584;29;20059;-39
2023/10/08 07:13:51;;;;;;;3.42;1.42;;;;;;;22.35;100.00;102124.03;4914383;29;20067;-39
2023/10/08 07:16:18;;;;;;;4.30;1.20;;;;;;;22.38;100.00;102123.09;4931622;29;20047;-41
2023/10/08 07:18:52;;;;;;;3.40;1.25;;;;;;;22.34;100.00;102100.56;4931759;29;20060;-41
2023/10/08 07:21:28;;;;;;;7.45;1.33;;;;;;;22.37;100.00;102099.63;4928853;29;20523;-40
2023/10/08 07:23:56;;;;;;;9.40;1.75;;;;;;;22.35;100.00;102115.53;4928110;29;20055;-38
2023/10/08 07:26:25;;;;;;;4.72;1.33;;;;;;;22.36;100.00;102129.22;4928751;29;20605;-40
2023/10/08 07:28:53;;;;;;;7.03;1.65;;;;;;;22.36;100.00;102111.44;4913307;29;20047;-38
2023/10/08 07:31:20;;;;;;;9.15;1.60;;;;;;;22.34;100.00;102099.78;4929964;29;20573;-40
2023/10/08 07:33:56;;;;;;;9.10;1.90;;;;;;;22.34;100.00;102105.47;4931259;29;20112;-41
2023/10/08 07:36:24;;;;;;;8.10;1.20;;;;;;;22.32;100.00;102127.78;4931423;29;20054;-39
2023/10/08 07:38:51;;;;;;;5.90;1.60;;;;;;;22.32;100.00;102093.78;4928844;29;20648;-38
2023/10/08 07:41:20;;;;;;;6.93;1.67;;;;;;;22.27;100.00;102108.56;4925900;29;20047;-41
2023/10/08 07:43:55;;;;;;;5.47;1.85;;;;;;;22.27;100.00;102109.31;4930324;29;20080;-43
2023/10/08 07:46:22;;;;;;;3.08;1.45;;;;;;;22.26;100.00;102123.94;4930376;29;20130;-40
2023/10/08 07:48:50;;;;;;;6.50;1.88;;;;;;;22.29;100.00;102132.31;4927414;29;20454;-40
2023/10/08 07:51:23;;;;;;;11.15;1.67;;;;;;;22.33;100.00;102129.38;4929454;29;20052;-39
2023/10/08 07:53:56;;;;;;;3.60;1.45;;;;;;;22.31;100.00;102135.50;4923443;29;20608;-39
2023/10/08 07:56:24;;;;;;;5.90;1.70;;;;;;;22.33;100.00;102123.69;4929871;29;20123;-41
2023/10/08 07:58:52;;;;;;;4.10;1.52;;;;;;;22.34;100.00;102122.47;4920342;29;20506;-39
2023/10/08 08:01:20;;;;;;;4.82;1.30;;;;;;;22.33;100.00;102121.66;4930713;29;20574;-39
2023/10/08 08:03:48;;;;;;;6.00;2.38;;;;;;;22.33;100.00;102132.19;4922521;29;20438;-39
2023/10/08 08:06:15;;;;;;;5.70;1.27;;;;;;;22.35;100.00;102138.19;4927347;29;20059;-40
2023/10/08 08:08:44;;;;;;;4.28;1.27;;;;;;;22.40;100.00;102149.72;4929205;29;20139;-40
2023/10/08 08:11:17;;;;;;;8.00;1.55;;;;;;;22.37;100.00;102164.03;4929711;29;20126;-39
2023/10/08 08:13:45;;;;;;;3.92;1.35;;;;;;;22.33;100.00;102171.84;4914573;29;20134;-41
2023/10/08 08:16:20;;;;;;;3.63;1.23;;;;;;;22.35;100.00;102172.19;4925712;29;20088;-40
2023/10/08 08:18:51;;;;;;;5.10;1.45;;;;;;;22.36;100.00;102168.09;4929138;29;20130;-41
2023/10/08 08:21:19;;;;;;;4.93;1.40;;;;;;;22.36;100.00;102179.44;4931095;29;20052;-39
2023/10/08 08:23:50;;;;;;;5.07;1.23;;;;;;;22.35;100.00;102172.19;4931523;29;20115;-40
2023/10/08 08:26:27;;;;;;;4.97;1.40;;;;;;;22.34;100.00;102173.47;4935722;29;20525;-39
2023/10/08 08:28:59;;;;;;;4.93;1.45;;;;;;;22.33;100.00;102175.50;4936745;29;20131;-40
2023/10/08 08:31:27;;;;;;;2.70;1.02;;;;;;;22.31;100.00;102166.66;4933430;29;20067;-41
2023/10/08 08:33:56;;;;;;;3.28;1.15;;;;;;;22.30;100.00;102169.94;4932496;29;20610;-39
2023/10/08 08:36:24;;;;;;;3.67;1.10;;;;;;;22.33;100.00;102169.03;4932802;29;20180;-38
2023/10/08 08:38:51;;;;;;;4.93;1.67;;;;;;;22.31;100.00;102169.50;4933775;29;20051;-39
2023/10/08 08:41:20;;;;;;;6.57;1.60;;;;;;;22.32;100.00;102167.47;4933982;29;20138;-41
2023/10/08 08:43:48;;;;;;;5.18;1.40;;;;;;;22.31;100.00;102180.06;4925403;29;20052;-40
2023/10/08 08:46:15;;;;;;;5.60;1.70;;;;;;;22.30;100.00;102193.41;4932482;29;21050;-40
2023/10/08 08:48:47;;;;;;;2.67;0.85;;;;;;;22.31;100.00;102205.56;4926741;29;20066;-40
2023/10/08 08:51:14;;;;;;;7.13;1.52;;;;;;;22.31;100.00;102203.50;4934994;29;20453;-41
2023/10/08 08:53:41;;;;;;;4.40;1.10;;;;;;;22.27;100.00;102197.16;4932632;29;20066;-38
2023/10/08 08:56:09;;;;;;;4.95;1.40;;;;;;;22.29;100.00;102183.31;4932270;29;20050;-39
2023/10/08 08:58:37;;;;;;;3.80;1.40;;;;;;;22.27;100.00;102185.81;4932388;29;20051;-40
2023/10/08 09:01:09;;;;;;;4.38;1.48;;;;;;;22.25;100.00;102196.03;4932499;29;20051;-38
2023/10/08 09:03:37;;;;;;;3.42;1.00;;;;;;;22.27;100.00;102202.81;4932380;29;20051;-40
2023/10/08 09:06:04;;;;;;;4.03;1.30;;;;;;;22.25;100.00;102208.16;4931376;29;20044;-39
2023/10/08 09:08:36;;;;;;;7.28;1.52;;;;;;;22.27;100.00;102213.38;4932235;29;20189;-39
2023/10/08 09:11:08;;;;;;;13.85;2.20;;;;;;;22.26;100.00;102206.09;4936089;29;20048;-39
2023/10/08 09:13:35;;;;;;;7.13;1.30;;;;;;;22.25;100.00;102207.38;4932441;29;20138;-38
2023/10/08 09:16:13;;;;;;;5.13;1.20;;;;;;;22.23;100.00;102222.00;4931017;29;20066;-39
2023/10/08 09:18:49;;;;;;;3.58;1.15;;;;;;;22.20;100.00;102237.06;4933754;29;20713;-41
2023/10/08 09:21:22;;;;;;;4.90;1.20;;;;;;;22.18;100.00;102248.09;4933158;29;20135;-38
2023/10/08 09:23:54;;;;;;;3.08;1.05;;;;;;;22.16;100.00;102253.41;4927393;29;20103;-39
2023/10/08 09:26:25;;;;;;;4.55;1.30;;;;;;;22.17;100.00;102255.00;4914123;29;20514;-38
2023/10/08 09:28:53;;;;;;;7.28;1.10;;;;;;;22.21;100.00;102260.53;4928206;29;20058;-39
2023/10/08 09:31:23;;;;;;;5.20;1.05;;;;;;;22.17;100.00;102243.66;4932272;29;20114;-37
2023/10/08 09:33:54;;;;;;;5.40;0.85;;;;;;;22.17;100.00;102247.28;4927992;29;20063;-40
2023/10/08 09:36:31;;;;;;;3.80;0.82;;;;;;;22.17;100.00;102252.97;4933058;29;20075;-38
2023/10/08 09:39:01;;;;;;;6.63;1.33;;;;;;;22.17;100.00;102255.00;4927804;29;20126;-39
2023/10/08 09:41:30;;;;;;;3.97;1.30;;;;;;;22.14;100.00;102256.72;4932953;29;20052;-38
2023/10/08 09:43:58;;;;;;;4.18;1.27;;;;;;;22.18;100.00;102256.59;4932783;29;20789;-39
2023/10/08 09:46:34;;;;;;;2.28;0.80;;;;;;;22.15;100.00;102246.97;4932472;29;20047;-39
2023/10/08 09:49:01;;;;;;;4.18;1.65;;;;;;;22.15;100.00;102244.13;4927677;29;20526;-38
2023/10/08 09:51:33;;;;;;;4.68;1.23;;;;;;;22.17;100.00;102235.16;4929321;29;20110;-40
2023/10/08 09:54:10;;;;;;;1.70;0.90;;;;;;;22.20;100.00;102233.47;4932115;29;20055;-39
2023/10/08 09:56:39;;;;;;;4.93;1.30;;;;;;;22.21;100.00;102227.34;4932934;29;20134;-38
2023/10/08 09:59:09;;;;;;;3.55;0.68;;;;;;;22.22;100.00;102234.59;4931495;29;20058;-38
2023/10/08 10:01:38;;;;;;;2.25;0.98;;;;;;;22.20;100.00;102227.81;4932208;29;20055;-40
2023/10/08 10:04:09;;;;;;;5.50;1.10;;;;;;;22.24;100.00;102229.22;4933817;29;20055;-38
2023/10/08 10:06:36;;;;;;;1.83;0.85;;;;;;;22.24;100.00;102231.28;4931868;29;20459;-40
2023/10/08 10:09:08;;;;;;;8.35;1.17;;;;;;;22.23;100.00;102232.53;4931870;29;20075;-37
2023/10/08 10:11:35;;;;;;;5.07;1.05;;;;;;;22.24;100.00;102240.56;4915187;29;20055;-40
2023/10/08 10:14:06;;;;;;;6.38;1.15;;;;;;;22.26;100.00;102249.41;4930374;29;20066;-42
2023/10/08 10:16:37;;;;;;;3.83;1.10;;;;;;;22.24;100.00;102248.28;4932073;29;20055;-38
2023/10/08 10:19:04;;;;;;;2.97;0.95;;;;;;;22.25;100.00;102255.53;4939147;29;20043;-42
2023/10/08 10:21:32;;;;;;;2.90;1.10;;;;;;;22.22;100.00;102253.63;4931840;29;20062;-39
2023/10/08 10:24:00;;;;;;;4.93;1.33;;;;;;;22.21;100.00;102257.72;4930348;29;20083;-38
2023/10/08 10:26:40;;;;;;;4.40;1.40;;;;;;;22.19;100.00;102258.16;4930807;29;20058;-38
2023/10/08 10:29:14;;;;;;;2.53;1.20;;;;;;;22.20;100.00;102258.97;4933348;29;20047;-42
2023/10/08 10:31:46;;;;;;;3.30;1.50;;;;;;;22.19;100.00;102258.16;4930033;29;20052;-38
2023/10/08 10:34:21;;;;;;;5.35;1.35;;;;;;;22.17;100.00;102272.00;4930810;29;20513;-39
2023/10/08 10:36:49;;;;;;;3.70;1.98;;;;;;;22.18;100.00;102277.19;4936141;29;20101;-40
2023/10/08 10:39:17;;;;;;;4.25;1.70;;;;;;;22.21;100.00;102267.00;4929517;29;20127;-40
2023/10/08 10:41:48;;;;;;;3.17;1.48;;;;;;;22.19;100.00;102258.16;4930244;29;20147;-41
2023/10/08 10:44:15;;;;;;;3.67;1.63;;;;;;;22.21;100.00;102269.84;4932819;29;20074;-41
2023/10/08 10:46:52;;;;;;;5.05;1.67;;;;;;;22.23;100.00;102260.84;4929394;29;20593;-40
2023/10/08 10:49:21;;;;;;;6.13;2.10;;;;;;;22.21;100.00;102260.53;4930414;29;20130;-38
2023/10/08 10:51:52;;;;;;;14.45;3.53;;;;;;;22.24;100.00;102262.44;4923326;29;20052;-40
2023/10/08 10:54:20;;;;;;;16.60;5.15;;;;;;;22.19;100.00;102255.34;4931037;29;20103;-39
2023/10/08 10:56:47;;;;;;;23.92;7.45;;;;;;;22.23;100.00;102241.03;4930102;29;20047;-40
2023/10/08 10:59:26;;;;;;;28.95;8.20;;;;;;;22.26;100.00;102257.91;4929485;29;20085;-39
2023/10/08 11:02:06;;;;;;;25.00;9.30;;;;;;;22.27;100.00;102250.19;4931283;29;20054;-40
2023/10/08 11:04:33;;;;;;;83.00;27.02;;;;;;;22.27;100.00;102247.38;4929513;29;20134;-42
2023/10/08 11:07:01;;;;;;;127.13;37.72;;;;;;;22.23;100.00;102244.66;4928419;29;20063;-40
2023/10/08 11:09:38;;;;;;;140.65;45.63;;;;;;;22.22;100.00;102239.44;4929473;29;20482;-38
2023/10/08 11:12:11;;;;;;;187.52;58.40;;;;;;;22.22;100.00;102239.44;4931644;29;20059;-39
2023/10/08 11:14:41;;;;;;;182.55;57.85;;;;;;;22.25;100.00;102230.84;4914646;29;20047;-39
2023/10/08 11:17:17;;;;;;;168.15;53.05;;;;;;;22.26;100.00;102234.44;4930664;29;20466;-40
2023/10/08 11:19:46;;;;;;;199.20;57.78;;;;;;;22.21;100.00;102237.88;4929067;29;20058;-41
2023/10/08 11:22:16;;;;;;;156.98;51.67;;;;;;;22.21;100.00;102240.72;4931443;29;20059;-39
2023/10/08 11:24:53;;;;;;;141.55;41.65;;;;;;;22.17;100.00;102250.13;4931533;29;20107;-38
2023/10/08 11:27:33;;;;;;;121.80;37.97;;;;;;;22.09;100.00;102239.53;4930483;29;20490;-40
2023/10/08 11:30:00;;;;;;;108.05;30.73;;;;;;;22.09;100.00;102248.81;4924995;29;20514;-38
2023/10/08 11:32:27;;;;;;;87.53;29.42;;;;;;;22.06;100.00;102246.91;4929596;29;20060;-40
2023/10/08 11:35:03;;;;;;;88.68;27.80;;;;;;;22.11;100.00;102251.19;4929665;29;20403;-41
2023/10/08 11:37:34;;;;;;;77.20;23.33;;;;;;;22.05;100.00;102238.88;4926159;29;20086;-40
2023/10/08 11:40:17;;;;;;;67.07;21.50;;;;;;;22.08;100.00;102244.38;4930468;29;20522;-40
2023/10/08 11:42:44;;;;;;;72.07;20.13;;;;;;;22.04;100.00;102229.56;4931453;29;20048;-39
2023/10/08 11:45:26;;;;;;;55.05;14.68;;;;;;;21.98;100.00;102239.91;4928354;29;20083;-39
2023/10/08 11:47:57;;;;;;;51.38;14.35;;;;;;;22.01;100.00;102229.72;4924273;29;20400;-39
2023/10/08 11:50:30;;;;;;;42.17;12.07;;;;;;;21.88;100.00;102229.00;4923162;29;20058;-38
2023/10/08 11:53:05;;;;;;;44.53;10.75;;;;;;;21.86;100.00;102222.97;4926622;29;20061;-41
2023/10/08 11:55:38;;;;;;;32.13;8.20;;;;;;;21.85;100.00;102212.91;4930345;29;20518;-39
2023/10/08 11:58:17;;;;;;;37.85;9.68;;;;;;;21.87;100.00;102214.03;4933314;29;20439;-40
2023/10/08 12:00:44;;;;;;;38.17;10.88;;;;;;;21.95;100.00;102208.91;4934075;29;20134;-39
2023/10/08 12:03:17;;;;;;;38.42;9.50;;;;;;;22.02;100.00;102209.44;4934773;29;20051;-37
2023/10/08 12:05:48;;;;;;;42.58;12.52;;;;;;;22.08;100.00;102210.41;4933118;29;20471;-42
2023/10/08 12:08:20;;;;;;;43.08;12.02;;;;;;;22.11;100.00;102215.16;4932842;29;20115;-40
2023/10/08 12:10:48;;;;;;;39.35;10.80;;;;;;;22.17;100.00;102212.50;4932305;29;20065;-44
2023/10/08 12:13:28;;;;;;;48.42;12.32;;;;;;;22.21;100.00;102201.84;4934857;29;20134;-40
2023/10/08 12:16:18;;;;;;;42.60;13.43;;;;;;;22.21;100.00;102206.72;4934457;29;20044;-40
2023/10/08 12:18:48;;;;;;;46.65;12.90;;;;;;;22.23;100.00;102198.53;4932218;29;20131;-39
2023/10/08 12:21:17;;;;;;;46.63;12.68;;;;;;;22.25;100.00;102190.38;4932081;29;20059;-40
2023/10/08 12:23:46;;;;;;;39.63;11.65;;;;;;;22.24;100.00;102186.72;4934046;29;20055;-38
2023/10/08 12:26:18;;;;;;;37.88;10.90;;;;;;;22.27;100.00;102193.53;4928615;29;20052;-37
2023/10/08 12:28:48;;;;;;;38.70;9.73;;;;;;;22.31;100.00;102194.22;4932215;29;20071;-38
2023/10/08 12:31:15;;;;;;;41.72;11.52;;;;;;;22.29;100.00;102186.16;4931833;29;20134;-39
2023/10/08 12:33:45;;;;;;;39.75;11.02;;;;;;;22.25;100.00;102185.50;4931104;29;20056;-38
2023/10/08 12:36:12;;;;;;;37.05;10.52;;;;;;;22.39;100.00;102187.00;4929457;29;20075;-38
2023/10/08 12:38:43;;;;;;;50.25;11.13;;;;;;;22.36;100.00;102190.78;4933003;29;20059;-39
2023/10/08 12:41:14;;;;;;;35.90;9.30;;;;;;;22.36;100.00;102187.94;4930282;29;20052;-40
2023/10/08 12:43:52;;;;;;;31.92;8.73;;;;;;;22.34;100.00;102179.13;4932109;29;20056;-39
2023/10/08 12:46:23;;;;;;;33.72;8.82;;;;;;;22.32;100.00;102190.13;4930419;29;20054;-39